sensor_id;sensor_type;location;lat;lon;timestamp;temperature;humidity
47805;DHT22;33568;45.286;9.900;2024-01-11T00:00:59;3.60;95.20
47805;DHT22;33568;45.286;9.900;2024-01-11T00:03:26;3.60;95.00
47805;DHT22;33568;45.286;9.900;2024-01-11T00:05:52;3.60;95.00
47805;DHT22;33568;45.286;9.900;2024-01-11T00:08:18;3.60;95.00
47805;DHT22;33568;45.286;9.900;2024-01-11T00:10:45;3.50;95.00
47805;DHT22;33568;45.286;9.900;2024-01-11T00:13:11;3.50;95.10
47805;DHT22;33568;45.286;9.900;2024-01-11T00:15:38;3.50;95.10
47805;DHT22;33568;45.286;9.900;2024-01-11T00:18:04;3.50;95.10
47805;DHT22;33568;45.286;9.900;2024-01-11T00:20:31;3.50;95.20
47805;DHT22;33568;45.286;9.900;2024-01-11T00:22:57;3.50;95.30
47805;DHT22;33568;45.286;9.900;2024-01-11T00:25:23;3.50;95.30
47805;DHT22;33568;45.286;9.900;2024-01-11T00:27:50;3.50;95.30
47805;DHT22;33568;45.286;9.900;2024-01-11T00:30:16;3.50;95.40
47805;DHT22;33568;45.286;9.900;2024-01-11T00:32:43;3.50;95.50
47805;DHT22;33568;45.286;9.900;2024-01-11T00:35:09;3.50;95.50
47805;DHT22;33568;45.286;9.900;2024-01-11T00:37:36;3.50;95.60
47805;DHT22;33568;45.286;9.900;2024-01-11T00:40:02;3.40;95.60
47805;DHT22;33568;45.286;9.900;2024-01-11T00:42:29;3.40;95.60
47805;DHT22;33568;45.286;9.900;2024-01-11T00:44:55;3.40;95.80
47805;DHT22;33568;45.286;9.900;2024-01-11T00:47:21;3.40;95.90
47805;DHT22;33568;45.286;9.900;2024-01-11T00:49:48;3.40;95.90
47805;DHT22;33568;45.286;9.900;2024-01-11T00:52:14;3.40;96.20
47805;DHT22;33568;45.286;9.900;2024-01-11T00:54:42;3.40;96.00
47805;DHT22;33568;45.286;9.900;2024-01-11T00:57:08;3.40;95.90
47805;DHT22;33568;45.286;9.900;2024-01-11T00:59:35;3.40;95.90
47805;DHT22;33568;45.286;9.900;2024-01-11T01:02:01;3.40;95.90
47805;DHT22;33568;45.286;9.900;2024-01-11T01:04:28;3.40;95.90
47805;DHT22;33568;45.286;9.900;2024-01-11T01:06:54;3.30;96.10
47805;DHT22;33568;45.286;9.900;2024-01-11T01:09:21;3.30;96.00
47805;DHT22;33568;45.286;9.900;2024-01-11T01:11:47;3.30;95.90
47805;DHT22;33568;45.286;9.900;2024-01-11T01:14:14;3.30;96.00
47805;DHT22;33568;45.286;9.900;2024-01-11T01:16:40;3.30;96.00
47805;DHT22;33568;45.286;9.900;2024-01-11T01:19:06;3.20;96.20
47805;DHT22;33568;45.286;9.900;2024-01-11T01:21:33;3.20;96.00
47805;DHT22;33568;45.286;9.900;2024-01-11T01:23:59;3.20;96.00
47805;DHT22;33568;45.286;9.900;2024-01-11T01:26:26;3.20;95.90
47805;DHT22;33568;45.286;9.900;2024-01-11T01:28:52;3.20;96.00
47805;DHT22;33568;45.286;9.900;2024-01-11T01:31:18;3.20;96.00
47805;DHT22;33568;45.286;9.900;2024-01-11T01:33:45;3.20;96.10
47805;DHT22;33568;45.286;9.900;2024-01-11T01:36:11;3.10;96.10
47805;DHT22;33568;45.286;9.900;2024-01-11T01:38:38;3.10;96.20
47805;DHT22;33568;45.286;9.900;2024-01-11T01:41:04;3.10;96.20
47805;DHT22;33568;45.286;9.900;2024-01-11T01:43:31;3.10;96.20
47805;DHT22;33568;45.286;9.900;2024-01-11T01:45:58;3.10;96.20
47805;DHT22;33568;45.286;9.900;2024-01-11T01:48:25;3.00;96.20
47805;DHT22;33568;45.286;9.900;2024-01-11T01:50:51;3.10;96.30
47805;DHT22;33568;45.286;9.900;2024-01-11T01:53:19;3.00;96.30
47805;DHT22;33568;45.286;9.900;2024-01-11T01:55:47;3.00;96.30
47805;DHT22;33568;45.286;9.900;2024-01-11T01:58:15;3.00;96.30
47805;DHT22;33568;45.286;9.900;2024-01-11T02:00:44;3.00;96.40
47805;DHT22;33568;45.286;9.900;2024-01-11T02:03:12;3.00;96.30
47805;DHT22;33568;45.286;9.900;2024-01-11T02:05:41;3.00;96.40
47805;DHT22;33568;45.286;9.900;2024-01-11T02:08:08;3.00;96.40
47805;DHT22;33568;45.286;9.900;2024-01-11T02:10:38;3.00;96.50
47805;DHT22;33568;45.286;9.900;2024-01-11T02:13:05;3.00;96.50
47805;DHT22;33568;45.286;9.900;2024-01-11T02:15:31;3.00;96.50
47805;DHT22;33568;45.286;9.900;2024-01-11T02:17:57;2.90;96.70
47805;DHT22;33568;45.286;9.900;2024-01-11T02:20:24;2.90;96.60
47805;DHT22;33568;45.286;9.900;2024-01-11T02:22:53;2.90;96.50
47805;DHT22;33568;45.286;9.900;2024-01-11T02:25:19;2.90;96.70
47805;DHT22;33568;45.286;9.900;2024-01-11T02:27:49;2.90;96.60
47805;DHT22;33568;45.286;9.900;2024-01-11T02:30:17;2.90;96.50
47805;DHT22;33568;45.286;9.900;2024-01-11T02:32:44;2.90;96.50
47805;DHT22;33568;45.286;9.900;2024-01-11T02:35:14;2.90;96.60
47805;DHT22;33568;45.286;9.900;2024-01-11T02:37:41;2.90;96.60
47805;DHT22;33568;45.286;9.900;2024-01-11T02:40:08;2.80;96.60
47805;DHT22;33568;45.286;9.900;2024-01-11T02:42:35;2.90;96.70
47805;DHT22;33568;45.286;9.900;2024-01-11T02:45:05;2.80;96.70
47805;DHT22;33568;45.286;9.900;2024-01-11T02:47:31;2.80;96.70
47805;DHT22;33568;45.286;9.900;2024-01-11T02:49:58;2.80;96.70
47805;DHT22;33568;45.286;9.900;2024-01-11T02:52:25;2.80;96.80
47805;DHT22;33568;45.286;9.900;2024-01-11T02:54:51;2.80;97.10
47805;DHT22;33568;45.286;9.900;2024-01-11T02:57:17;2.80;96.90
47805;DHT22;33568;45.286;9.900;2024-01-11T02:59:44;2.70;96.90
47805;DHT22;33568;45.286;9.900;2024-01-11T03:02:10;2.70;96.90
47805;DHT22;33568;45.286;9.900;2024-01-11T03:04:37;2.60;97.00
47805;DHT22;33568;45.286;9.900;2024-01-11T03:07:03;2.70;97.00
47805;DHT22;33568;45.286;9.900;2024-01-11T03:09:29;2.70;97.20
47805;DHT22;33568;45.286;9.900;2024-01-11T03:11:56;2.60;97.20
47805;DHT22;33568;45.286;9.900;2024-01-11T03:14:22;2.70;97.10
47805;DHT22;33568;45.286;9.900;2024-01-11T03:16:48;2.70;97.10
47805;DHT22;33568;45.286;9.900;2024-01-11T03:19:15;2.70;97.20
47805;DHT22;33568;45.286;9.900;2024-01-11T03:21:43;2.70;97.20
47805;DHT22;33568;45.286;9.900;2024-01-11T03:24:10;2.70;97.20
47805;DHT22;33568;45.286;9.900;2024-01-11T03:26:36;2.70;97.20
47805;DHT22;33568;45.286;9.900;2024-01-11T03:29:02;2.70;97.30
47805;DHT22;33568;45.286;9.900;2024-01-11T03:31:29;2.60;97.30
47805;DHT22;33568;45.286;9.900;2024-01-11T03:33:55;2.70;97.30
47805;DHT22;33568;45.286;9.900;2024-01-11T03:36:23;2.70;97.40
47805;DHT22;33568;45.286;9.900;2024-01-11T03:38:51;2.70;97.40
47805;DHT22;33568;45.286;9.900;2024-01-11T03:41:17;2.70;97.50
47805;DHT22;33568;45.286;9.900;2024-01-11T03:43:43;2.60;97.80
47805;DHT22;33568;45.286;9.900;2024-01-11T03:46:10;2.60;97.60
47805;DHT22;33568;45.286;9.900;2024-01-11T03:48:36;2.60;97.70
47805;DHT22;33568;45.286;9.900;2024-01-11T03:51:02;2.60;97.70
47805;DHT22;33568;45.286;9.900;2024-01-11T03:53:29;2.60;98.10
47805;DHT22;33568;45.286;9.900;2024-01-11T03:55:55;2.60;97.80
47805;DHT22;33568;45.286;9.900;2024-01-11T03:58:22;2.60;98.10
47805;DHT22;33568;45.286;9.900;2024-01-11T04:00:49;2.60;97.80
47805;DHT22;33568;45.286;9.900;2024-01-11T04:03:15;2.60;97.70
47805;DHT22;33568;45.286;9.900;2024-01-11T04:05:41;2.60;97.70
47805;DHT22;33568;45.286;9.900;2024-01-11T04:08:08;2.60;97.80
47805;DHT22;33568;45.286;9.900;2024-01-11T04:10:34;2.60;97.70
47805;DHT22;33568;45.286;9.900;2024-01-11T04:13:00;2.60;97.70
47805;DHT22;33568;45.286;9.900;2024-01-11T04:15:27;2.50;97.90
47805;DHT22;33568;45.286;9.900;2024-01-11T04:17:53;2.50;97.70
47805;DHT22;33568;45.286;9.900;2024-01-11T04:20:20;2.50;97.70
47805;DHT22;33568;45.286;9.900;2024-01-11T04:22:46;2.50;97.80
47805;DHT22;33568;45.286;9.900;2024-01-11T04:25:12;2.50;97.80
47805;DHT22;33568;45.286;9.900;2024-01-11T04:27:39;2.50;98.00
47805;DHT22;33568;45.286;9.900;2024-01-11T04:30:06;2.50;97.90
47805;DHT22;33568;45.286;9.900;2024-01-11T04:32:32;2.50;97.90
47805;DHT22;33568;45.286;9.900;2024-01-11T04:34:59;2.50;97.90
47805;DHT22;33568;45.286;9.900;2024-01-11T04:37:25;2.50;97.90
47805;DHT22;33568;45.286;9.900;2024-01-11T04:39:52;2.50;97.90
47805;DHT22;33568;45.286;9.900;2024-01-11T04:42:18;2.50;97.90
47805;DHT22;33568;45.286;9.900;2024-01-11T04:44:44;2.50;98.00
47805;DHT22;33568;45.286;9.900;2024-01-11T04:47:11;2.50;98.10
47805;DHT22;33568;45.286;9.900;2024-01-11T04:49:37;2.50;98.20
47805;DHT22;33568;45.286;9.900;2024-01-11T04:52:05;2.50;98.10
47805;DHT22;33568;45.286;9.900;2024-01-11T04:54:32;2.50;98.20
47805;DHT22;33568;45.286;9.900;2024-01-11T04:56:58;2.40;98.30
47805;DHT22;33568;45.286;9.900;2024-01-11T04:59:27;2.50;98.30
47805;DHT22;33568;45.286;9.900;2024-01-11T05:01:53;2.50;98.20
47805;DHT22;33568;45.286;9.900;2024-01-11T05:04:20;2.50;98.20
47805;DHT22;33568;45.286;9.900;2024-01-11T05:06:46;2.50;98.20
47805;DHT22;33568;45.286;9.900;2024-01-11T05:09:13;2.50;98.10
47805;DHT22;33568;45.286;9.900;2024-01-11T05:11:40;2.40;98.20
47805;DHT22;33568;45.286;9.900;2024-01-11T05:14:06;2.40;98.10
47805;DHT22;33568;45.286;9.900;2024-01-11T05:16:33;2.40;98.00
47805;DHT22;33568;45.286;9.900;2024-01-11T05:19:01;2.40;97.90
47805;DHT22;33568;45.286;9.900;2024-01-11T05:21:28;2.30;97.90
47805;DHT22;33568;45.286;9.900;2024-01-11T05:23:55;2.30;98.00
47805;DHT22;33568;45.286;9.900;2024-01-11T05:26:21;2.20;98.10
47805;DHT22;33568;45.286;9.900;2024-01-11T05:28:48;2.30;98.20
47805;DHT22;33568;45.286;9.900;2024-01-11T05:31:15;2.30;98.20
47805;DHT22;33568;45.286;9.900;2024-01-11T05:33:42;2.30;98.30
47805;DHT22;33568;45.286;9.900;2024-01-11T05:36:09;2.20;98.20
47805;DHT22;33568;45.286;9.900;2024-01-11T05:38:35;2.30;98.30
47805;DHT22;33568;45.286;9.900;2024-01-11T05:41:02;2.20;98.50
47805;DHT22;33568;45.286;9.900;2024-01-11T05:43:28;2.20;98.40
47805;DHT22;33568;45.286;9.900;2024-01-11T05:45:55;2.20;98.30
47805;DHT22;33568;45.286;9.900;2024-01-11T05:48:21;2.20;98.30
47805;DHT22;33568;45.286;9.900;2024-01-11T05:50:48;2.20;98.20
47805;DHT22;33568;45.286;9.900;2024-01-11T05:53:14;2.20;98.20
47805;DHT22;33568;45.286;9.900;2024-01-11T05:55:41;2.20;98.30
47805;DHT22;33568;45.286;9.900;2024-01-11T05:58:07;2.20;98.20
47805;DHT22;33568;45.286;9.900;2024-01-11T06:00:34;2.10;98.20
47805;DHT22;33568;45.286;9.900;2024-01-11T06:03:00;2.10;98.20
47805;DHT22;33568;45.286;9.900;2024-01-11T06:05:27;2.10;98.20
47805;DHT22;33568;45.286;9.900;2024-01-11T06:07:53;2.00;98.30
47805;DHT22;33568;45.286;9.900;2024-01-11T06:10:20;2.10;98.30
47805;DHT22;33568;45.286;9.900;2024-01-11T06:12:46;2.10;98.30
47805;DHT22;33568;45.286;9.900;2024-01-11T06:15:13;2.00;98.40
47805;DHT22;33568;45.286;9.900;2024-01-11T06:17:39;2.10;98.40
47805;DHT22;33568;45.286;9.900;2024-01-11T06:20:06;2.10;98.30
47805;DHT22;33568;45.286;9.900;2024-01-11T06:22:33;2.00;98.30
47805;DHT22;33568;45.286;9.900;2024-01-11T06:24:59;2.10;98.40
47805;DHT22;33568;45.286;9.900;2024-01-11T06:27:26;2.00;98.60
47805;DHT22;33568;45.286;9.900;2024-01-11T06:29:52;2.00;98.50
47805;DHT22;33568;45.286;9.900;2024-01-11T06:32:19;2.10;98.50
47805;DHT22;33568;45.286;9.900;2024-01-11T06:34:45;2.00;98.60
47805;DHT22;33568;45.286;9.900;2024-01-11T06:37:13;2.10;98.60
47805;DHT22;33568;45.286;9.900;2024-01-11T06:39:39;2.10;98.50
47805;DHT22;33568;45.286;9.900;2024-01-11T06:42:06;2.10;98.40
47805;DHT22;33568;45.286;9.900;2024-01-11T06:44:32;2.00;98.60
47805;DHT22;33568;45.286;9.900;2024-01-11T06:46:59;2.00;98.50
47805;DHT22;33568;45.286;9.900;2024-01-11T06:49:27;2.00;98.60
47805;DHT22;33568;45.286;9.900;2024-01-11T06:51:54;2.00;98.70
47805;DHT22;33568;45.286;9.900;2024-01-11T06:54:20;2.00;98.70
47805;DHT22;33568;45.286;9.900;2024-01-11T06:56:46;2.00;99.00
47805;DHT22;33568;45.286;9.900;2024-01-11T06:59:13;2.00;98.80
47805;DHT22;33568;45.286;9.900;2024-01-11T07:01:40;2.10;98.70
47805;DHT22;33568;45.286;9.900;2024-01-11T07:04:06;2.10;98.70
47805;DHT22;33568;45.286;9.900;2024-01-11T07:06:32;2.10;98.90
47805;DHT22;33568;45.286;9.900;2024-01-11T07:08:58;2.10;98.70
47805;DHT22;33568;45.286;9.900;2024-01-11T07:11:25;2.10;98.70
47805;DHT22;33568;45.286;9.900;2024-01-11T07:13:51;2.10;98.80
47805;DHT22;33568;45.286;9.900;2024-01-11T07:16:18;2.10;98.70
47805;DHT22;33568;45.286;9.900;2024-01-11T07:18:44;2.10;98.60
47805;DHT22;33568;45.286;9.900;2024-01-11T07:21:11;2.20;98.60
47805;DHT22;33568;45.286;9.900;2024-01-11T07:23:39;2.20;98.60
47805;DHT22;33568;45.286;9.900;2024-01-11T07:26:05;2.10;98.70
47805;DHT22;33568;45.286;9.900;2024-01-11T07:28:31;2.10;98.90
47805;DHT22;33568;45.286;9.900;2024-01-11T07:30:58;2.20;98.70
47805;DHT22;33568;45.286;9.900;2024-01-11T07:33:24;2.20;98.60
47805;DHT22;33568;45.286;9.900;2024-01-11T07:35:51;2.30;98.60
47805;DHT22;33568;45.286;9.900;2024-01-11T07:38:17;2.30;98.60
47805;DHT22;33568;45.286;9.900;2024-01-11T07:40:44;2.30;98.70
47805;DHT22;33568;45.286;9.900;2024-01-11T07:43:10;2.40;98.60
47805;DHT22;33568;45.286;9.900;2024-01-11T07:45:37;2.40;98.70
47805;DHT22;33568;45.286;9.900;2024-01-11T07:48:03;2.50;98.70
47805;DHT22;33568;45.286;9.900;2024-01-11T07:50:31;2.50;99.00
47805;DHT22;33568;45.286;9.900;2024-01-11T07:52:58;2.60;98.80
47805;DHT22;33568;45.286;9.900;2024-01-11T07:55:24;2.60;98.80
47805;DHT22;33568;45.286;9.900;2024-01-11T07:57:51;2.70;98.80
47805;DHT22;33568;45.286;9.900;2024-01-11T08:00:17;2.80;98.70
47805;DHT22;33568;45.286;9.900;2024-01-11T08:02:43;2.90;98.80
47805;DHT22;33568;45.286;9.900;2024-01-11T08:05:10;2.90;98.70
47805;DHT22;33568;45.286;9.900;2024-01-11T08:07:36;3.00;98.70
47805;DHT22;33568;45.286;9.900;2024-01-11T08:10:03;3.00;99.10
47805;DHT22;33568;45.286;9.900;2024-01-11T08:12:30;3.10;99.20
47805;DHT22;33568;45.286;9.900;2024-01-11T08:14:56;3.20;98.80
47805;DHT22;33568;45.286;9.900;2024-01-11T08:17:23;3.30;98.70
47805;DHT22;33568;45.286;9.900;2024-01-11T08:19:49;3.40;98.70
47805;DHT22;33568;45.286;9.900;2024-01-11T08:22:16;3.40;98.70
47805;DHT22;33568;45.286;9.900;2024-01-11T08:24:42;3.50;98.60
47805;DHT22;33568;45.286;9.900;2024-01-11T08:27:08;3.50;98.60
47805;DHT22;33568;45.286;9.900;2024-01-11T08:29:35;3.60;98.50
47805;DHT22;33568;45.286;9.900;2024-01-11T08:32:01;3.70;98.40
47805;DHT22;33568;45.286;9.900;2024-01-11T08:34:30;3.70;98.40
47805;DHT22;33568;45.286;9.900;2024-01-11T08:36:56;3.80;98.40
47805;DHT22;33568;45.286;9.900;2024-01-11T08:39:23;3.80;98.30
47805;DHT22;33568;45.286;9.900;2024-01-11T08:41:49;3.90;98.40
47805;DHT22;33568;45.286;9.900;2024-01-11T08:44:16;3.90;98.30
47805;DHT22;33568;45.286;9.900;2024-01-11T08:46:42;4.00;98.30
47805;DHT22;33568;45.286;9.900;2024-01-11T08:49:10;4.00;98.10
47805;DHT22;33568;45.286;9.900;2024-01-11T08:51:36;4.00;98.40
47805;DHT22;33568;45.286;9.900;2024-01-11T08:54:02;4.10;98.20
47805;DHT22;33568;45.286;9.900;2024-01-11T08:56:30;4.10;98.20
47805;DHT22;33568;45.286;9.900;2024-01-11T08:58:56;4.10;98.30
47805;DHT22;33568;45.286;9.900;2024-01-11T09:01:25;4.20;98.10
47805;DHT22;33568;45.286;9.900;2024-01-11T09:03:51;4.30;98.20
47805;DHT22;33568;45.286;9.900;2024-01-11T09:06:17;4.40;98.20
47805;DHT22;33568;45.286;9.900;2024-01-11T09:08:44;4.40;97.90
47805;DHT22;33568;45.286;9.900;2024-01-11T09:11:10;4.50;98.10
47805;DHT22;33568;45.286;9.900;2024-01-11T09:13:36;4.60;97.90
47805;DHT22;33568;45.286;9.900;2024-01-11T09:16:03;4.60;97.50
47805;DHT22;33568;45.286;9.900;2024-01-11T09:18:29;4.80;97.80
47805;DHT22;33568;45.286;9.900;2024-01-11T09:20:56;4.90;97.70
47805;DHT22;33568;45.286;9.900;2024-01-11T09:23:23;5.00;97.50
47805;DHT22;33568;45.286;9.900;2024-01-11T09:25:49;5.00;97.40
47805;DHT22;33568;45.286;9.900;2024-01-11T09:28:16;5.10;97.30
47805;DHT22;33568;45.286;9.900;2024-01-11T09:30:42;5.20;97.30
47805;DHT22;33568;45.286;9.900;2024-01-11T09:33:09;5.30;96.90
47805;DHT22;33568;45.286;9.900;2024-01-11T09:35:35;5.30;97.20
47805;DHT22;33568;45.286;9.900;2024-01-11T09:38:02;5.40;97.00
47805;DHT22;33568;45.286;9.900;2024-01-11T09:40:28;5.60;96.80
47805;DHT22;33568;45.286;9.900;2024-01-11T09:42:54;5.60;96.50
47805;DHT22;33568;45.286;9.900;2024-01-11T09:45:21;5.70;96.40
47805;DHT22;33568;45.286;9.900;2024-01-11T09:47:49;5.90;96.40
47805;DHT22;33568;45.286;9.900;2024-01-11T09:50:17;5.90;96.20
47805;DHT22;33568;45.286;9.900;2024-01-11T09:52:48;6.10;96.00
47805;DHT22;33568;45.286;9.900;2024-01-11T09:55:16;7.70;96.20
47805;DHT22;33568;45.286;9.900;2024-01-11T09:57:47;10.40;92.50
47805;DHT22;33568;45.286;9.900;2024-01-11T10:00:18;12.90;86.10
47805;DHT22;33568;45.286;9.900;2024-01-11T10:02:48;15.10;78.50
47805;DHT22;33568;45.286;9.900;2024-01-11T10:05:16;16.50;72.10
47805;DHT22;33568;45.286;9.900;2024-01-11T10:07:43;17.90;68.70
47805;DHT22;33568;45.286;9.900;2024-01-11T10:10:09;18.90;65.50
47805;DHT22;33568;45.286;9.900;2024-01-11T10:12:36;19.80;55.50
47805;DHT22;33568;45.286;9.900;2024-01-11T10:15:10;20.50;61.70
47805;DHT22;33568;45.286;9.900;2024-01-11T10:17:41;20.90;57.60
47805;DHT22;33568;45.286;9.900;2024-01-11T10:20:08;21.40;56.80
47805;DHT22;33568;45.286;9.900;2024-01-11T10:22:36;21.60;55.30
47805;DHT22;33568;45.286;9.900;2024-01-11T10:25:13;21.50;54.00
47805;DHT22;33568;45.286;9.900;2024-01-11T10:27:42;21.70;50.00
47805;DHT22;33568;45.286;9.900;2024-01-11T10:30:13;22.10;52.10
47805;DHT22;33568;45.286;9.900;2024-01-11T10:32:46;22.60;50.50
47805;DHT22;33568;45.286;9.900;2024-01-11T10:35:13;23.10;49.50
47805;DHT22;33568;45.286;9.900;2024-01-11T10:37:41;23.20;49.30
47805;DHT22;33568;45.286;9.900;2024-01-11T10:40:09;23.00;49.20
47805;DHT22;33568;45.286;9.900;2024-01-11T10:42:45;23.40;48.40
47805;DHT22;33568;45.286;9.900;2024-01-11T10:45:16;23.50;45.50
47805;DHT22;33568;45.286;9.900;2024-01-11T10:48:03;23.70;46.40
47805;DHT22;33568;45.286;9.900;2024-01-11T10:50:37;24.10;42.10
47805;DHT22;33568;45.286;9.900;2024-01-11T10:55:44;24.80;42.70
47805;DHT22;33568;45.286;9.900;2024-01-11T10:58:11;25.20;44.00
47805;DHT22;33568;45.286;9.900;2024-01-11T11:00:38;25.50;43.30
47805;DHT22;33568;45.286;9.900;2024-01-11T11:03:05;24.80;42.50
47805;DHT22;33568;45.286;9.900;2024-01-11T11:05:34;24.70;42.20
47805;DHT22;33568;45.286;9.900;2024-01-11T11:08:04;24.70;41.80
47805;DHT22;33568;45.286;9.900;2024-01-11T11:10:34;24.80;41.60
47805;DHT22;33568;45.286;9.900;2024-01-11T11:13:00;24.80;41.10
47805;DHT22;33568;45.286;9.900;2024-01-11T11:15:28;24.90;40.90
47805;DHT22;33568;45.286;9.900;2024-01-11T11:17:57;24.90;40.80
47805;DHT22;33568;45.286;9.900;2024-01-11T11:20:24;24.80;40.50
47805;DHT22;33568;45.286;9.900;2024-01-11T11:23:04;25.00;40.50
47805;DHT22;33568;45.286;9.900;2024-01-11T11:25:31;25.50;38.00
47805;DHT22;33568;45.286;9.900;2024-01-11T11:27:58;25.60;39.80
47805;DHT22;33568;45.286;9.900;2024-01-11T11:30:27;25.50;39.40
47805;DHT22;33568;45.286;9.900;2024-01-11T11:32:55;25.50;39.60
47805;DHT22;33568;45.286;9.900;2024-01-11T11:35:25;25.60;39.50
47805;DHT22;33568;45.286;9.900;2024-01-11T11:37:57;25.60;39.10
47805;DHT22;33568;45.286;9.900;2024-01-11T11:40:36;25.40;38.00
47805;DHT22;33568;45.286;9.900;2024-01-11T11:43:05;25.50;37.40
47805;DHT22;33568;45.286;9.900;2024-01-11T11:45:32;26.00;38.80
47805;DHT22;33568;45.286;9.900;2024-01-11T11:47:58;26.00;38.40
47805;DHT22;33568;45.286;9.900;2024-01-11T11:50:25;26.10;38.30
47805;DHT22;33568;45.286;9.900;2024-01-11T11:52:54;26.00;38.10
47805;DHT22;33568;45.286;9.900;2024-01-11T11:55:24;25.90;36.40
47805;DHT22;33568;45.286;9.900;2024-01-11T11:57:54;25.70;39.00
47805;DHT22;33568;45.286;9.900;2024-01-11T12:00:21;25.70;38.70
47805;DHT22;33568;45.286;9.900;2024-01-11T12:02:48;25.70;38.40
47805;DHT22;33568;45.286;9.900;2024-01-11T12:05:16;25.80;38.20
47805;DHT22;33568;45.286;9.900;2024-01-11T12:07:43;26.10;37.90
47805;DHT22;33568;45.286;9.900;2024-01-11T12:10:10;26.20;38.00
47805;DHT22;33568;45.286;9.900;2024-01-11T12:12:36;26.30;38.10
47805;DHT22;33568;45.286;9.900;2024-01-11T12:15:04;26.50;38.20
47805;DHT22;33568;45.286;9.900;2024-01-11T12:17:31;26.60;37.90
47805;DHT22;33568;45.286;9.900;2024-01-11T12:19:57;26.70;38.00
47805;DHT22;33568;45.286;9.900;2024-01-11T12:22:24;26.80;37.60
47805;DHT22;33568;45.286;9.900;2024-01-11T12:24:51;26.80;37.20
47805;DHT22;33568;45.286;9.900;2024-01-11T12:27:17;26.60;37.50
47805;DHT22;33568;45.286;9.900;2024-01-11T12:29:44;26.50;37.40
47805;DHT22;33568;45.286;9.900;2024-01-11T12:32:10;24.50;37.70
47805;DHT22;33568;45.286;9.900;2024-01-11T12:34:43;21.70;39.90
47805;DHT22;33568;45.286;9.900;2024-01-11T12:37:09;19.00;42.50
47805;DHT22;33568;45.286;9.900;2024-01-11T12:39:38;16.80;45.20
47805;DHT22;33568;45.286;9.900;2024-01-11T12:42:05;15.10;47.40
47805;DHT22;33568;45.286;9.900;2024-01-11T12:44:32;14.00;49.10
47805;DHT22;33568;45.286;9.900;2024-01-11T12:46:59;13.10;50.30
47805;DHT22;33568;45.286;9.900;2024-01-11T12:49:25;12.50;51.40
47805;DHT22;33568;45.286;9.900;2024-01-11T12:51:51;12.00;53.50
47805;DHT22;33568;45.286;9.900;2024-01-11T12:54:18;11.70;53.20
47805;DHT22;33568;45.286;9.900;2024-01-11T12:56:45;11.50;54.00
47805;DHT22;33568;45.286;9.900;2024-01-11T12:59:12;11.30;54.60
47805;DHT22;33568;45.286;9.900;2024-01-11T13:01:39;11.10;55.20
47805;DHT22;33568;45.286;9.900;2024-01-11T13:04:09;10.90;55.70
47805;DHT22;33568;45.286;9.900;2024-01-11T13:06:35;10.80;56.40
47805;DHT22;33568;45.286;9.900;2024-01-11T13:09:02;10.60;57.00
47805;DHT22;33568;45.286;9.900;2024-01-11T13:11:29;10.40;59.00
47805;DHT22;33568;45.286;9.900;2024-01-11T13:13:55;10.30;57.80
47805;DHT22;33568;45.286;9.900;2024-01-11T13:16:24;10.20;60.40
47805;DHT22;33568;45.286;9.900;2024-01-11T13:18:51;10.20;58.50
47805;DHT22;33568;45.286;9.900;2024-01-11T13:21:18;10.10;59.20
47805;DHT22;33568;45.286;9.900;2024-01-11T13:23:44;10.00;59.70
47805;DHT22;33568;45.286;9.900;2024-01-11T13:26:10;9.90;60.20
47805;DHT22;33568;45.286;9.900;2024-01-11T13:28:37;9.80;60.60
47805;DHT22;33568;45.286;9.900;2024-01-11T13:31:03;9.70;63.10
47805;DHT22;33568;45.286;9.900;2024-01-11T13:33:30;9.70;61.40
47805;DHT22;33568;45.286;9.900;2024-01-11T13:35:56;9.70;61.80
47805;DHT22;33568;45.286;9.900;2024-01-11T13:38:22;9.70;62.10
47805;DHT22;33568;45.286;9.900;2024-01-11T13:40:49;9.60;64.10
47805;DHT22;33568;45.286;9.900;2024-01-11T13:43:15;9.60;62.70
47805;DHT22;33568;45.286;9.900;2024-01-11T13:45:43;9.60;63.10
47805;DHT22;33568;45.286;9.900;2024-01-11T13:48:10;9.60;63.40
47805;DHT22;33568;45.286;9.900;2024-01-11T13:50:37;9.60;63.70
47805;DHT22;33568;45.286;9.900;2024-01-11T13:53:03;9.50;65.20
47805;DHT22;33568;45.286;9.900;2024-01-11T13:55:30;9.50;64.20
47805;DHT22;33568;45.286;9.900;2024-01-11T13:58:03;9.50;65.80
47805;DHT22;33568;45.286;9.900;2024-01-11T14:00:30;9.60;64.40
47805;DHT22;33568;45.286;9.900;2024-01-11T14:02:56;9.50;66.30
47805;DHT22;33568;45.286;9.900;2024-01-11T14:05:22;9.50;64.80
47805;DHT22;33568;45.286;9.900;2024-01-11T14:07:48;9.50;66.80
47805;DHT22;33568;45.286;9.900;2024-01-11T14:10:20;9.50;65.30
47805;DHT22;33568;45.286;9.900;2024-01-11T14:12:46;9.50;65.60
47805;DHT22;33568;45.286;9.900;2024-01-11T14:15:13;9.50;66.00
47805;DHT22;33568;45.286;9.900;2024-01-11T14:17:40;9.50;66.30
47805;DHT22;33568;45.286;9.900;2024-01-11T14:20:07;9.50;66.50
47805;DHT22;33568;45.286;9.900;2024-01-11T14:22:40;9.50;67.00
47805;DHT22;33568;45.286;9.900;2024-01-11T14:25:08;9.50;67.40
47805;DHT22;33568;45.286;9.900;2024-01-11T14:27:37;9.50;67.70
47805;DHT22;33568;45.286;9.900;2024-01-11T14:30:03;9.40;68.00
47805;DHT22;33568;45.286;9.900;2024-01-11T14:32:32;9.40;68.30
47805;DHT22;33568;45.286;9.900;2024-01-11T14:34:59;9.40;68.60
47805;DHT22;33568;45.286;9.900;2024-01-11T14:37:30;9.40;68.80
47805;DHT22;33568;45.286;9.900;2024-01-11T14:39:57;9.40;69.00
47805;DHT22;33568;45.286;9.900;2024-01-11T14:42:25;9.40;69.50
47805;DHT22;33568;45.286;9.900;2024-01-11T14:44:52;9.40;69.80
47805;DHT22;33568;45.286;9.900;2024-01-11T14:47:18;9.40;70.00
47805;DHT22;33568;45.286;9.900;2024-01-11T14:49:45;9.30;71.20
47805;DHT22;33568;45.286;9.900;2024-01-11T14:52:12;9.30;70.50
47805;DHT22;33568;45.286;9.900;2024-01-11T14:54:39;9.20;70.70
47805;DHT22;33568;45.286;9.900;2024-01-11T14:57:06;9.20;71.00
47805;DHT22;33568;45.286;9.900;2024-01-11T14:59:32;9.10;71.20
47805;DHT22;33568;45.286;9.900;2024-01-11T15:02:02;9.10;71.50
47805;DHT22;33568;45.286;9.900;2024-01-11T15:04:28;9.10;71.70
47805;DHT22;33568;45.286;9.900;2024-01-11T15:06:55;9.10;72.00
47805;DHT22;33568;45.286;9.900;2024-01-11T15:09:22;8.90;73.60
47805;DHT22;33568;45.286;9.900;2024-01-11T15:11:49;8.90;72.70
47805;DHT22;33568;45.286;9.900;2024-01-11T15:14:16;8.90;72.70
47805;DHT22;33568;45.286;9.900;2024-01-11T15:16:43;8.80;73.00
47805;DHT22;33568;45.286;9.900;2024-01-11T15:19:12;8.80;73.50
47805;DHT22;33568;45.286;9.900;2024-01-11T15:21:38;8.70;73.80
47805;DHT22;33568;45.286;9.900;2024-01-11T15:24:06;8.70;74.10
47805;DHT22;33568;45.286;9.900;2024-01-11T15:26:33;8.70;74.40
47805;DHT22;33568;45.286;9.900;2024-01-11T15:28:59;8.60;74.80
47805;DHT22;33568;45.286;9.900;2024-01-11T15:31:27;8.60;75.10
47805;DHT22;33568;45.286;9.900;2024-01-11T15:33:53;8.50;75.40
47805;DHT22;33568;45.286;9.900;2024-01-11T15:36:21;8.50;75.60
47805;DHT22;33568;45.286;9.900;2024-01-11T15:38:48;8.50;76.00
47805;DHT22;33568;45.286;9.900;2024-01-11T15:41:15;8.40;76.40
47805;DHT22;33568;45.286;9.900;2024-01-11T15:43:42;8.40;76.70